PWSweather.com
Personal Weather Stations
Station Observations
KMICHEBO10
Cordwood Point, Lake Huron, Cheboygan, MI 49721

Cordwood Point, Lake HuronCheboygan, MI 49721

Lat: 45.663372, Lon: -84.3327789

Elevation: 584

Station Type: Davis Vantage Pro2 Wireless

https://www.lakehuronweather.org

High Low Average
Temperature 44.0°F6.7°C 24.6°F-4.1°C 33.2°F0.7°C
Dew Point 36.7°F2.6°C 22.5°F-5.3°C 29.3°F-1.5°C
Winds 5.8 mph 9.3 kmh Calm Calm 2.0 mph SSE3.2 kmh SSE
Wind Gusts 11.5 mph18.5 kmh -- 4.0 mph6.4 kmh
Humidity 93% 68% 86%
Pressure 30.36 in1028.1 mb 29.81 in1009.5 mb -
Precipitation 0.30 in7.6 mm - -
Hour Temp Dew Point Humidity Winds Wind Gusts Pressure Precip Precip Rate Daily Precip Total
12:00 AM 27.5°F-2.5°C 25.2°F-3.8°C 91% 1.2 mph S1.9 kmh S 3.5 mph5.6 kmh 30.36 in1028.1 mb - 0.00 in0.0 mm 0.00 in0.0 mm
12:10 AM 27.5°F-2.5°C 25.2°F-3.8°C 91% 1.2 mph S1.9 kmh S 2.3 mph3.7 kmh 30.36 in1028.1 mb - 0.00 in0.0 mm 0.00 in0.0 mm
12:20 AM 27.5°F-2.5°C 25.2°F-3.8°C 91% 2.3 mph SSW3.7 kmh SSW 4.6 mph7.4 kmh 30.36 in1028.1 mb - 0.00 in0.0 mm 0.00 in0.0 mm
12:30 AM 27.4°F-2.6°C 25.1°F-3.8°C 91% 1.2 mph S1.9 kmh S 2.3 mph3.7 kmh 30.36 in1028.1 mb - 0.00 in0.0 mm 0.00 in0.0 mm
12:40 AM 27.4°F-2.6°C 25.1°F-3.8°C 91% 1.2 mph SSE1.9 kmh SSE 3.5 mph5.6 kmh 30.36 in1028.1 mb - 0.00 in0.0 mm 0.00 in0.0 mm
12:50 AM 27.5°F-2.5°C 25.2°F-3.8°C 91% 1.2 mph S1.9 kmh S 2.3 mph3.7 kmh 30.36 in1028.1 mb - 0.00 in0.0 mm 0.00 in0.0 mm
01:00 AM 27.4°F-2.6°C 25.2°F-3.8°C 91% 1.2 mph S1.9 kmh S 3.5 mph5.6 kmh 30.36 in1028.1 mb - 0.00 in0.0 mm 0.00 in0.0 mm
01:10 AM 27.4°F-2.6°C 25.1°F-3.8°C 91% 1.2 mph S1.9 kmh S 2.3 mph3.7 kmh 30.36 in1028.1 mb - 0.00 in0.0 mm 0.00 in0.0 mm
01:20 AM 27.1°F-2.7°C 24.9°F-3.9°C 91% 1.2 mph S1.9 kmh S 2.3 mph3.7 kmh 30.36 in1028.1 mb - 0.00 in0.0 mm 0.00 in0.0 mm
01:30 AM 27.0°F-2.8°C 24.7°F-4.1°C 91% 1.2 mph SSE1.9 kmh SSE 2.3 mph3.7 kmh 30.35 in1027.8 mb - 0.00 in0.0 mm 0.00 in0.0 mm
01:40 AM 26.8°F-2.9°C 24.3°F-4.3°C 90% 1.2 mph SE1.9 kmh SE 3.5 mph5.6 kmh 30.35 in1027.8 mb - 0.00 in0.0 mm 0.00 in0.0 mm
01:50 AM 26.6°F-3.0°C 24.3°F-4.3°C 91% Calm Calm 1.2 mph1.9 kmh 30.34 in1027.4 mb - 0.00 in0.0 mm 0.00 in0.0 mm
02:00 AM 26.2°F-3.2°C 23.9°F-4.5°C 91% Calm Calm 1.2 mph1.9 kmh 30.34 in1027.4 mb - 0.00 in0.0 mm 0.00 in0.0 mm
02:10 AM 26.2°F-3.2°C 23.9°F-4.5°C 91% 1.2 mph SE1.9 kmh SE 2.3 mph3.7 kmh 30.33 in1027.1 mb - 0.00 in0.0 mm 0.00 in0.0 mm
02:20 AM 26.1°F-3.3°C 23.6°F-4.7°C 90% 1.2 mph SE1.9 kmh SE 2.3 mph3.7 kmh 30.33 in1027.1 mb - 0.00 in0.0 mm 0.00 in0.0 mm
02:30 AM 26.2°F-3.2°C 23.7°F-4.6°C 90% 1.2 mph ESE1.9 kmh ESE 2.3 mph3.7 kmh 30.33 in1027.1 mb - 0.00 in0.0 mm 0.00 in0.0 mm
02:40 AM 26.4°F-3.1°C 23.8°F-4.6°C 90% 1.2 mph SE1.9 kmh SE 2.3 mph3.7 kmh 30.33 in1027.1 mb - 0.00 in0.0 mm 0.00 in0.0 mm
02:50 AM 26.3°F-3.2°C 23.8°F-4.6°C 90% 1.2 mph SE1.9 kmh SE 2.3 mph3.7 kmh 30.33 in1027.1 mb - 0.00 in0.0 mm 0.00 in0.0 mm
03:00 AM 26.3°F-3.2°C 23.5°F-4.7°C 89% 1.2 mph SE1.9 kmh SE 3.5 mph5.6 kmh 30.33 in1027.1 mb - 0.00 in0.0 mm 0.00 in0.0 mm
03:10 AM 26.3°F-3.2°C 23.5°F-4.7°C 89% 1.2 mph SSE1.9 kmh SSE 1.2 mph1.9 kmh 30.33 in1027.1 mb - 0.00 in0.0 mm 0.00 in0.0 mm
03:20 AM 26.2°F-3.2°C 23.4°F-4.8°C 89% 3.5 mph ESE5.6 kmh ESE 5.8 mph9.3 kmh 30.32 in1026.8 mb - 0.00 in0.0 mm 0.00 in0.0 mm
03:30 AM 26.0°F-3.3°C 23.2°F-4.9°C 89% 2.3 mph SE3.7 kmh SE 5.8 mph9.3 kmh 30.31 in1026.4 mb - 0.00 in0.0 mm 0.00 in0.0 mm
03:40 AM 26.0°F-3.3°C 23.5°F-4.7°C 90% 1.2 mph SE1.9 kmh SE 3.5 mph5.6 kmh 30.31 in1026.4 mb - 0.00 in0.0 mm 0.00 in0.0 mm
03:50 AM 26.0°F-3.3°C 23.5°F-4.7°C 90% 2.3 mph SE3.7 kmh SE 3.5 mph5.6 kmh 30.31 in1026.4 mb - 0.00 in0.0 mm 0.00 in0.0 mm
04:00 AM 26.1°F-3.3°C 23.6°F-4.7°C 90% 3.5 mph SE5.6 kmh SE 4.6 mph7.4 kmh 30.31 in1026.4 mb - 0.00 in0.0 mm 0.00 in0.0 mm
04:10 AM 26.1°F-3.3°C 23.3°F-4.8°C 89% 2.3 mph SE3.7 kmh SE 3.5 mph5.6 kmh 30.31 in1026.4 mb - 0.00 in0.0 mm 0.00 in0.0 mm
04:20 AM 26.0°F-3.3°C 23.5°F-4.7°C 90% 2.3 mph SE3.7 kmh SE 3.5 mph5.6 kmh 30.30 in1026.1 mb - 0.00 in0.0 mm 0.00 in0.0 mm
04:30 AM 25.7°F-3.5°C 23.2°F-4.9°C 90% 1.2 mph SE1.9 kmh SE 3.5 mph5.6 kmh 30.30 in1026.1 mb - 0.00 in0.0 mm 0.00 in0.0 mm
04:40 AM 25.5°F-3.6°C 23.0°F-5.0°C 90% 2.3 mph ESE3.7 kmh ESE 3.5 mph5.6 kmh 30.29 in1025.7 mb - 0.00 in0.0 mm 0.00 in0.0 mm
04:50 AM 25.5°F-3.6°C 23.2°F-4.9°C 91% 1.2 mph ESE1.9 kmh ESE 2.3 mph3.7 kmh 30.28 in1025.4 mb - 0.00 in0.0 mm 0.00 in0.0 mm
05:00 AM 25.3°F-3.7°C 23.0°F-5.0°C 91% 1.2 mph SE1.9 kmh SE 2.3 mph3.7 kmh 30.28 in1025.4 mb - 0.00 in0.0 mm 0.00 in0.0 mm
05:10 AM 25.0°F-3.9°C 22.7°F-5.2°C 91% 2.3 mph ESE3.7 kmh ESE 5.8 mph9.3 kmh 30.28 in1025.4 mb - 0.00 in0.0 mm 0.00 in0.0 mm
05:20 AM 25.1°F-3.8°C 22.8°F-5.1°C 91% 2.3 mph SE3.7 kmh SE 3.5 mph5.6 kmh 30.27 in1025.1 mb - 0.00 in0.0 mm 0.00 in0.0 mm
05:30 AM 25.1°F-3.8°C 22.8°F-5.1°C 91% 2.3 mph SE3.7 kmh SE 3.5 mph5.6 kmh 30.27 in1025.1 mb - 0.00 in0.0 mm 0.00 in0.0 mm
05:40 AM 25.3°F-3.7°C 23.3°F-4.8°C 92% 2.3 mph SE3.7 kmh SE 5.8 mph9.3 kmh 30.27 in1025.1 mb - 0.00 in0.0 mm 0.00 in0.0 mm
05:50 AM 25.2°F-3.8°C 23.2°F-4.9°C 92% 2.3 mph SE3.7 kmh SE 3.5 mph5.6 kmh 30.26 in1024.7 mb - 0.00 in0.0 mm 0.00 in0.0 mm
06:00 AM 25.2°F-3.8°C 22.9°F-5.1°C 91% 4.6 mph SSE7.4 kmh SSE 8.1 mph13.0 kmh 30.26 in1024.7 mb - 0.00 in0.0 mm 0.00 in0.0 mm
06:10 AM 25.2°F-3.8°C 22.9°F-5.1°C 91% 2.3 mph SE3.7 kmh SE 4.6 mph7.4 kmh 30.26 in1024.7 mb - 0.00 in0.0 mm 0.00 in0.0 mm
06:20 AM 25.0°F-3.9°C 22.8°F-5.1°C 91% 3.5 mph SSE5.6 kmh SSE 4.6 mph7.4 kmh 30.25 in1024.4 mb - 0.00 in0.0 mm 0.00 in0.0 mm
06:30 AM 24.8°F-4.0°C 22.5°F-5.3°C 91% 3.5 mph SSE5.6 kmh SSE 6.9 mph11.1 kmh 30.25 in1024.4 mb - 0.00 in0.0 mm 0.00 in0.0 mm
06:40 AM 24.7°F-4.1°C 22.7°F-5.2°C 92% 3.5 mph SSE5.6 kmh SSE 5.8 mph9.3 kmh 30.25 in1024.4 mb - 0.00 in0.0 mm 0.00 in0.0 mm
06:50 AM 24.6°F-4.1°C 22.6°F-5.2°C 92% 2.3 mph SSE3.7 kmh SSE 4.6 mph7.4 kmh 30.25 in1024.4 mb - 0.00 in0.0 mm 0.00 in0.0 mm
07:00 AM 24.7°F-4.1°C 22.7°F-5.2°C 92% 2.3 mph SE3.7 kmh SE 4.6 mph7.4 kmh 30.25 in1024.4 mb - 0.00 in0.0 mm 0.00 in0.0 mm
07:10 AM 24.9°F-3.9°C 22.9°F-5.1°C 92% 2.3 mph SE3.7 kmh SE 4.6 mph7.4 kmh 30.24 in1024.0 mb - 0.00 in0.0 mm 0.00 in0.0 mm
07:20 AM 24.9°F-3.9°C 22.9°F-5.1°C 92% 2.3 mph SE3.7 kmh SE 5.8 mph9.3 kmh 30.24 in1024.0 mb - 0.00 in0.0 mm 0.00 in0.0 mm
07:30 AM 24.9°F-3.9°C 22.9°F-5.1°C 92% 2.3 mph SSE3.7 kmh SSE 3.5 mph5.6 kmh 30.24 in1024.0 mb - 0.00 in0.0 mm 0.00 in0.0 mm
07:40 AM 24.9°F-3.9°C 22.9°F-5.1°C 92% 1.2 mph SSE1.9 kmh SSE 2.3 mph3.7 kmh 30.24 in1024.0 mb - 0.00 in0.0 mm 0.00 in0.0 mm
07:50 AM 24.8°F-4.0°C 22.8°F-5.1°C 92% 2.3 mph SE3.7 kmh SE 4.6 mph7.4 kmh 30.24 in1024.0 mb - 0.00 in0.0 mm 0.00 in0.0 mm
08:00 AM 24.8°F-4.0°C 22.8°F-5.1°C 92% 1.2 mph SE1.9 kmh SE 2.3 mph3.7 kmh 30.24 in1024.0 mb - 0.00 in0.0 mm 0.00 in0.0 mm
08:10 AM 24.7°F-4.1°C 22.7°F-5.2°C 92% 2.3 mph ESE3.7 kmh ESE 2.3 mph3.7 kmh 30.23 in1023.7 mb - 0.00 in0.0 mm 0.00 in0.0 mm
08:20 AM 24.7°F-4.1°C 22.7°F-5.2°C 92% 1.2 mph SE1.9 kmh SE 2.3 mph3.7 kmh 30.23 in1023.7 mb - 0.00 in0.0 mm 0.00 in0.0 mm
08:30 AM 24.6°F-4.1°C 22.9°F-5.1°C 93% 2.3 mph SE3.7 kmh SE 4.6 mph7.4 kmh 30.23 in1023.7 mb - 0.00 in0.0 mm 0.00 in0.0 mm
08:40 AM 24.8°F-4.0°C 23.1°F-4.9°C 93% 1.2 mph SSE1.9 kmh SSE 2.3 mph3.7 kmh 30.22 in1023.4 mb - 0.00 in0.0 mm 0.00 in0.0 mm
08:50 AM 24.8°F-4.0°C 23.1°F-4.9°C 93% 1.2 mph SE1.9 kmh SE 2.3 mph3.7 kmh 30.23 in1023.7 mb - 0.00 in0.0 mm 0.00 in0.0 mm
09:00 AM 24.8°F-4.0°C 23.1°F-4.9°C 93% 1.2 mph ESE1.9 kmh ESE 3.5 mph5.6 kmh 30.22 in1023.4 mb - 0.00 in0.0 mm 0.00 in0.0 mm
09:10 AM 24.9°F-3.9°C 23.2°F-4.9°C 93% 1.2 mph SE1.9 kmh SE 3.5 mph5.6 kmh 30.22 in1023.4 mb - 0.00 in0.0 mm 0.00 in0.0 mm
09:20 AM 24.9°F-3.9°C 23.1°F-4.9°C 93% 2.3 mph SE3.7 kmh SE 5.8 mph9.3 kmh 30.21 in1023.0 mb - 0.00 in0.0 mm 0.00 in0.0 mm
09:30 AM 24.9°F-3.9°C 23.2°F-4.9°C 93% 2.3 mph SE3.7 kmh SE 4.6 mph7.4 kmh 30.21 in1023.0 mb - 0.00 in0.0 mm 0.00 in0.0 mm
09:40 AM 25.1°F-3.8°C 23.3°F-4.8°C 93% 2.3 mph SE3.7 kmh SE 3.5 mph5.6 kmh 30.20 in1022.7 mb - 0.00 in0.0 mm 0.00 in0.0 mm
09:50 AM 25.1°F-3.8°C 23.4°F-4.8°C 93% 3.5 mph SE5.6 kmh SE 6.9 mph11.1 kmh 30.19 in1022.4 mb - 0.00 in0.0 mm 0.00 in0.0 mm
10:00 AM 25.4°F-3.7°C 23.7°F-4.6°C 93% 2.3 mph SSE3.7 kmh SSE 5.8 mph9.3 kmh 30.18 in1022.0 mb - 0.00 in0.0 mm 0.00 in0.0 mm
10:10 AM 25.6°F-3.6°C 23.9°F-4.5°C 93% 2.3 mph SSE3.7 kmh SSE 3.5 mph5.6 kmh 30.18 in1022.0 mb - 0.00 in0.0 mm 0.00 in0.0 mm
10:20 AM 25.9°F-3.4°C 23.9°F-4.5°C 92% 3.5 mph S5.6 kmh S 4.6 mph7.4 kmh 30.18 in1022.0 mb - 0.00 in0.0 mm 0.00 in0.0 mm
10:30 AM 26.3°F-3.2°C 24.3°F-4.3°C 92% 1.2 mph E1.9 kmh E 2.3 mph3.7 kmh 30.18 in1022.0 mb - 0.00 in0.0 mm 0.00 in0.0 mm
10:40 AM 26.7°F-2.9°C 24.7°F-4.1°C 92% 1.2 mph ESE1.9 kmh ESE 2.3 mph3.7 kmh 30.17 in1021.7 mb - 0.00 in0.0 mm 0.00 in0.0 mm
10:50 AM 27.0°F-2.8°C 25.0°F-3.9°C 92% 1.2 mph SE1.9 kmh SE 3.5 mph5.6 kmh 30.17 in1021.7 mb - 0.00 in0.0 mm 0.00 in0.0 mm
11:00 AM 27.5°F-2.5°C 25.2°F-3.8°C 91% 3.5 mph SE5.6 kmh SE 5.8 mph9.3 kmh 30.16 in1021.3 mb - 0.00 in0.0 mm 0.00 in0.0 mm
11:10 AM 28.0°F-2.2°C 25.7°F-3.5°C 91% 2.3 mph SE3.7 kmh SE 5.8 mph9.3 kmh 30.15 in1021.0 mb - 0.00 in0.0 mm 0.00 in0.0 mm
11:20 AM 28.7°F-1.8°C 26.4°F-3.1°C 91% 4.6 mph SE7.4 kmh SE 8.1 mph13.0 kmh 30.15 in1021.0 mb - 0.00 in0.0 mm 0.00 in0.0 mm
11:30 AM 29.3°F-1.5°C 26.7°F-2.9°C 90% 1.2 mph SE1.9 kmh SE 4.6 mph7.4 kmh 30.14 in1020.7 mb - 0.00 in0.0 mm 0.00 in0.0 mm
11:40 AM 29.9°F-1.2°C 27.3°F-2.6°C 90% 2.3 mph SE3.7 kmh SE 4.6 mph7.4 kmh 30.14 in1020.7 mb - 0.00 in0.0 mm 0.00 in0.0 mm
11:50 AM 30.6°F-0.8°C 27.7°F-2.4°C 89% 2.3 mph S3.7 kmh S 9.2 mph14.8 kmh 30.14 in1020.7 mb - 0.00 in0.0 mm 0.00 in0.0 mm
12:00 PM 31.1°F-0.5°C 28.0°F-2.2°C 88% 3.5 mph SSE5.6 kmh SSE 3.5 mph5.6 kmh 30.13 in1020.3 mb - 0.00 in0.0 mm 0.00 in0.0 mm
12:10 PM 31.7°F-0.2°C 28.5°F-1.9°C 88% 3.5 mph SE5.6 kmh SE 4.6 mph7.4 kmh 30.13 in1020.3 mb - 0.00 in0.0 mm 0.00 in0.0 mm
12:20 PM 32.3°F0.2°C 28.9°F-1.7°C 87% 2.3 mph SE3.7 kmh SE 4.6 mph7.4 kmh 30.13 in1020.3 mb - 0.00 in0.0 mm 0.00 in0.0 mm
12:30 PM 32.9°F0.5°C 29.4°F-1.4°C 87% 1.2 mph S1.9 kmh S 3.5 mph5.6 kmh 30.12 in1020.0 mb - 0.00 in0.0 mm 0.00 in0.0 mm
12:40 PM 33.6°F0.9°C 29.9°F-1.2°C 86% 3.5 mph ESE5.6 kmh ESE 6.9 mph11.1 kmh 30.12 in1020.0 mb - 0.00 in0.0 mm 0.00 in0.0 mm
12:50 PM 34.2°F1.2°C 30.5°F-0.8°C 86% 3.5 mph SE5.6 kmh SE 6.9 mph11.1 kmh 30.11 in1019.6 mb - 0.00 in0.0 mm 0.00 in0.0 mm
01:00 PM 34.6°F1.4°C 30.6°F-0.8°C 85% 4.6 mph S7.4 kmh S 6.9 mph11.1 kmh 30.10 in1019.3 mb - 0.00 in0.0 mm 0.00 in0.0 mm
01:10 PM 35.0°F1.7°C 31.2°F-0.4°C 86% 2.3 mph SE3.7 kmh SE 6.9 mph11.1 kmh 30.09 in1019.0 mb - 0.00 in0.0 mm 0.00 in0.0 mm
01:20 PM 35.2°F1.8°C 31.2°F-0.4°C 85% 3.5 mph SE5.6 kmh SE 6.9 mph11.1 kmh 30.08 in1018.6 mb - 0.00 in0.0 mm 0.00 in0.0 mm
01:30 PM 35.5°F1.9°C 31.7°F-0.2°C 86% 1.2 mph SSE1.9 kmh SSE 2.3 mph3.7 kmh 30.07 in1018.3 mb - 0.00 in0.0 mm 0.00 in0.0 mm
01:40 PM 35.9°F2.2°C 31.8°F-0.1°C 85% 5.8 mph S9.3 kmh S 11.5 mph18.5 kmh 30.07 in1018.3 mb - 0.00 in0.0 mm 0.00 in0.0 mm
01:50 PM 36.4°F2.4°C 32.3°F0.2°C 85% 3.5 mph SSW5.6 kmh SSW 4.6 mph7.4 kmh 30.06 in1017.9 mb - 0.00 in0.0 mm 0.00 in0.0 mm
02:00 PM 36.9°F2.7°C 32.8°F0.4°C 85% 4.6 mph SE7.4 kmh SE 4.6 mph7.4 kmh 30.06 in1017.9 mb - 0.00 in0.0 mm 0.00 in0.0 mm
02:10 PM 37.4°F3.0°C 33.3°F0.7°C 85% 3.5 mph S5.6 kmh S 6.9 mph11.1 kmh 30.05 in1017.6 mb - 0.00 in0.0 mm 0.00 in0.0 mm
02:20 PM 37.9°F3.3°C 33.5°F0.8°C 84% 3.5 mph S5.6 kmh S 5.8 mph9.3 kmh 30.05 in1017.6 mb - 0.00 in0.0 mm 0.00 in0.0 mm
02:30 PM 38.3°F3.5°C 33.9°F1.1°C 84% 1.2 mph SE1.9 kmh SE 3.5 mph5.6 kmh 30.04 in1017.3 mb - 0.00 in0.0 mm 0.00 in0.0 mm
02:40 PM 38.7°F3.7°C 34.3°F1.3°C 84% 2.3 mph SSE3.7 kmh SSE 3.5 mph5.6 kmh 30.04 in1017.3 mb - 0.00 in0.0 mm 0.00 in0.0 mm
02:50 PM 39.3°F4.1°C 34.8°F1.6°C 84% 4.6 mph S7.4 kmh S 4.6 mph7.4 kmh 30.04 in1017.3 mb - 0.00 in0.0 mm 0.00 in0.0 mm
03:00 PM 39.7°F4.3°C 34.9°F1.6°C 83% 2.3 mph S3.7 kmh S 5.8 mph9.3 kmh 30.03 in1016.9 mb - 0.00 in0.0 mm 0.00 in0.0 mm
03:10 PM 40.0°F4.4°C 34.9°F1.6°C 82% 3.5 mph SE5.6 kmh SE 5.8 mph9.3 kmh 30.02 in1016.6 mb - 0.00 in0.0 mm 0.00 in0.0 mm
03:20 PM 40.3°F4.6°C 35.6°F2.0°C 83% 2.3 mph ESE3.7 kmh ESE 4.6 mph7.4 kmh 30.02 in1016.6 mb - 0.00 in0.0 mm 0.00 in0.0 mm
03:30 PM 40.9°F4.9°C 35.8°F2.1°C 82% 4.6 mph SSE7.4 kmh SSE 6.9 mph11.1 kmh 30.00 in1015.9 mb - 0.00 in0.0 mm 0.00 in0.0 mm
03:40 PM 41.1°F5.1°C 36.0°F2.2°C 82% 2.3 mph S3.7 kmh S 3.5 mph5.6 kmh 30.00 in1015.9 mb - 0.00 in0.0 mm 0.00 in0.0 mm
03:50 PM 41.4°F5.2°C 36.3°F2.4°C 82% 3.5 mph SE5.6 kmh SE 4.6 mph7.4 kmh 29.99 in1015.6 mb - 0.00 in0.0 mm 0.00 in0.0 mm
04:00 PM 41.5°F5.3°C 36.7°F2.6°C 83% 2.3 mph S3.7 kmh S 4.6 mph7.4 kmh 29.98 in1015.2 mb - 0.00 in0.0 mm 0.00 in0.0 mm
04:10 PM 41.6°F5.3°C 36.5°F2.5°C 82% 1.2 mph ESE1.9 kmh ESE 1.2 mph1.9 kmh 29.98 in1015.2 mb - 0.01 in0.3 mm 0.01 in0.3 mm
04:20 PM 41.8°F5.4°C 36.7°F2.6°C 82% 2.3 mph S3.7 kmh S 5.8 mph9.3 kmh 29.98 in1015.2 mb - 0.02 in0.5 mm 0.03 in0.8 mm
04:30 PM 41.6°F5.3°C 36.5°F2.5°C 82% 1.2 mph SE1.9 kmh SE 2.3 mph3.7 kmh 29.98 in1015.2 mb - 0.01 in0.3 mm 0.04 in1.0 mm
04:40 PM 41.6°F5.3°C 36.5°F2.5°C 82% 2.3 mph SE3.7 kmh SE 2.3 mph3.7 kmh 29.97 in1014.9 mb - 0.01 in0.3 mm 0.05 in1.3 mm
04:50 PM 42.0°F5.6°C 36.6°F2.6°C 81% 1.2 mph SE1.9 kmh SE 3.5 mph5.6 kmh 29.96 in1014.6 mb - 0.01 in0.3 mm 0.06 in1.5 mm
05:00 PM 42.0°F5.6°C 36.3°F2.4°C 80% 1.2 mph ESE1.9 kmh ESE 2.3 mph3.7 kmh 29.95 in1014.2 mb - 0.01 in0.3 mm 0.07 in1.8 mm
05:10 PM 40.8°F4.9°C 35.2°F1.8°C 80% 2.3 mph SE3.7 kmh SE 4.6 mph7.4 kmh 29.94 in1013.9 mb - 0.01 in0.3 mm 0.08 in2.0 mm
05:20 PM 39.8°F4.3°C 34.5°F1.4°C 81% Calm Calm 1.2 mph1.9 kmh 29.95 in1014.2 mb - 0.01 in0.3 mm 0.09 in2.3 mm
05:30 PM 38.4°F3.6°C 34.0°F1.1°C 84% 1.2 mph SE1.9 kmh SE 1.2 mph1.9 kmh 29.94 in1013.9 mb - 0.00 in0.0 mm 0.09 in2.3 mm
05:40 PM 37.8°F3.2°C 33.7°F0.9°C 85% 1.2 mph ESE1.9 kmh ESE 3.5 mph5.6 kmh 29.93 in1013.5 mb - 0.01 in0.3 mm 0.10 in2.5 mm
05:50 PM 37.3°F2.9°C 33.5°F0.8°C 86% Calm Calm 1.2 mph1.9 kmh 29.93 in1013.5 mb - 0.00 in0.0 mm 0.10 in2.5 mm
06:00 PM 37.1°F2.8°C 33.6°F0.9°C 87% Calm Calm -- 29.93 in1013.5 mb - 0.01 in0.3 mm 0.11 in2.8 mm
06:10 PM 36.9°F2.7°C 33.4°F0.8°C 87% Calm Calm 1.2 mph1.9 kmh 29.94 in1013.9 mb - 0.00 in0.0 mm 0.11 in2.8 mm
06:20 PM 36.5°F2.5°C 33.3°F0.7°C 88% Calm Calm 1.2 mph1.9 kmh 29.93 in1013.5 mb - 0.00 in0.0 mm 0.11 in2.8 mm
06:30 PM 36.3°F2.4°C 33.4°F0.8°C 89% 1.2 mph SE1.9 kmh SE 2.3 mph3.7 kmh 29.93 in1013.5 mb - 0.01 in0.3 mm 0.12 in3.0 mm
06:40 PM 36.6°F2.6°C 33.7°F0.9°C 89% 1.2 mph SSE1.9 kmh SSE 1.2 mph1.9 kmh 29.93 in1013.5 mb - 0.00 in0.0 mm 0.12 in3.0 mm
06:50 PM 37.0°F2.8°C 33.8°F1.0°C 88% 1.2 mph S1.9 kmh S 1.2 mph1.9 kmh 29.93 in1013.5 mb - 0.01 in0.3 mm 0.13 in3.3 mm
07:00 PM 37.7°F3.2°C 33.8°F1.0°C 86% 1.2 mph SE1.9 kmh SE 3.5 mph5.6 kmh 29.93 in1013.5 mb - 0.00 in0.0 mm 0.13 in3.3 mm
07:10 PM 37.9°F3.3°C 33.8°F1.0°C 85% 1.2 mph SSE1.9 kmh SSE 4.6 mph7.4 kmh 29.93 in1013.5 mb - 0.00 in0.0 mm 0.13 in3.3 mm
07:20 PM 38.6°F3.7°C 34.2°F1.2°C 84% 1.2 mph SSE1.9 kmh SSE 3.5 mph5.6 kmh 29.93 in1013.5 mb - 0.01 in0.3 mm 0.14 in3.6 mm
07:30 PM 38.8°F3.8°C 34.1°F1.2°C 83% 1.2 mph SSE1.9 kmh SSE 3.5 mph5.6 kmh 29.92 in1013.2 mb - 0.00 in0.0 mm 0.14 in3.6 mm
07:40 PM 38.6°F3.7°C 33.9°F1.1°C 83% 1.2 mph SE1.9 kmh SE 2.3 mph3.7 kmh 29.92 in1013.2 mb - 0.00 in0.0 mm 0.14 in3.6 mm
07:50 PM 38.7°F3.7°C 34.0°F1.1°C 83% 1.2 mph SSE1.9 kmh SSE 1.2 mph1.9 kmh 29.92 in1013.2 mb - 0.01 in0.3 mm 0.15 in3.8 mm
08:00 PM 38.8°F3.8°C 34.1°F1.2°C 83% 1.2 mph SE1.9 kmh SE 1.2 mph1.9 kmh 29.91 in1012.9 mb - 0.00 in0.0 mm 0.15 in3.8 mm
08:10 PM 38.9°F3.8°C 34.2°F1.2°C 83% 1.2 mph SSE1.9 kmh SSE 2.3 mph3.7 kmh 29.91 in1012.9 mb - 0.00 in0.0 mm 0.15 in3.8 mm
08:20 PM 39.0°F3.9°C 34.0°F1.1°C 82% 1.2 mph S1.9 kmh S 2.3 mph3.7 kmh 29.90 in1012.5 mb - 0.01 in0.3 mm 0.16 in4.1 mm
08:30 PM 39.2°F4.0°C 34.2°F1.2°C 82% 3.5 mph S5.6 kmh S 8.1 mph13.0 kmh 29.90 in1012.5 mb - 0.00 in0.0 mm 0.16 in4.1 mm
08:40 PM 39.9°F4.4°C 34.5°F1.4°C 81% 2.3 mph SE3.7 kmh SE 3.5 mph5.6 kmh 29.90 in1012.5 mb - 0.00 in0.0 mm 0.16 in4.1 mm
08:50 PM 40.1°F4.5°C 34.4°F1.3°C 80% 3.5 mph SSE5.6 kmh SSE 4.6 mph7.4 kmh 29.89 in1012.2 mb - 0.01 in0.3 mm 0.17 in4.3 mm
09:00 PM 40.6°F4.8°C 34.9°F1.6°C 80% 1.2 mph SSE1.9 kmh SSE 4.6 mph7.4 kmh 29.89 in1012.2 mb - 0.00 in0.0 mm 0.17 in4.3 mm
09:10 PM 40.8°F4.9°C 34.8°F1.6°C 79% 2.3 mph S3.7 kmh S 4.6 mph7.4 kmh 29.89 in1012.2 mb - 0.01 in0.3 mm 0.18 in4.6 mm
09:20 PM 40.9°F4.9°C 34.9°F1.6°C 79% 3.5 mph S5.6 kmh S 6.9 mph11.1 kmh 29.89 in1012.2 mb - 0.00 in0.0 mm 0.18 in4.6 mm
09:30 PM 41.0°F5.0°C 35.0°F1.7°C 79% 2.3 mph S3.7 kmh S 3.5 mph5.6 kmh 29.89 in1012.2 mb - 0.01 in0.3 mm 0.19 in4.8 mm
09:40 PM 41.1°F5.1°C 35.1°F1.7°C 79% 1.2 mph S1.9 kmh S 2.3 mph3.7 kmh 29.90 in1012.5 mb - 0.00 in0.0 mm 0.19 in4.8 mm
09:50 PM 40.9°F4.9°C 34.6°F1.4°C 78% 2.3 mph SSE3.7 kmh SSE 4.6 mph7.4 kmh 29.89 in1012.2 mb - 0.01 in0.3 mm 0.20 in5.1 mm
10:00 PM 41.6°F5.3°C 34.9°F1.6°C 77% 2.3 mph S3.7 kmh S 2.3 mph3.7 kmh 29.89 in1012.2 mb - 0.01 in0.3 mm 0.21 in5.3 mm
10:10 PM 42.0°F5.6°C 34.7°F1.5°C 75% 3.5 mph S5.6 kmh S 8.1 mph13.0 kmh 29.88 in1011.9 mb - 0.00 in0.0 mm 0.21 in5.3 mm
10:20 PM 42.4°F5.8°C 34.7°F1.5°C 74% 1.2 mph SSW1.9 kmh SSW 2.3 mph3.7 kmh 29.87 in1011.5 mb - 0.01 in0.3 mm 0.22 in5.6 mm
10:30 PM 42.7°F5.9°C 35.0°F1.7°C 74% 1.2 mph S1.9 kmh S 2.3 mph3.7 kmh 29.87 in1011.5 mb - 0.01 in0.3 mm 0.23 in5.8 mm
10:40 PM 42.9°F6.1°C 34.8°F1.6°C 73% 1.2 mph S1.9 kmh S 4.6 mph7.4 kmh 29.87 in1011.5 mb - 0.00 in0.0 mm 0.23 in5.8 mm
10:50 PM 43.3°F6.3°C 35.2°F1.8°C 73% 3.5 mph S5.6 kmh S 5.8 mph9.3 kmh 29.85 in1010.8 mb - 0.01 in0.3 mm 0.24 in6.1 mm
11:00 PM 43.4°F6.3°C 35.3°F1.8°C 73% 2.3 mph SW3.7 kmh SW 6.9 mph11.1 kmh 29.84 in1010.5 mb - 0.00 in0.0 mm 0.24 in6.1 mm
11:10 PM 43.6°F6.4°C 35.5°F1.9°C 73% 2.3 mph SSE3.7 kmh SSE 3.5 mph5.6 kmh 29.84 in1010.5 mb - 0.01 in0.3 mm 0.25 in6.4 mm
11:20 PM 44.0°F6.7°C 35.6°F2.0°C 72% 3.5 mph SSW5.6 kmh SSW 4.6 mph7.4 kmh 29.84 in1010.5 mb - 0.00 in0.0 mm 0.25 in6.4 mm
11:30 PM 43.9°F6.6°C 35.5°F1.9°C 72% 3.5 mph S5.6 kmh S 9.2 mph14.8 kmh 29.84 in1010.5 mb - 0.01 in0.3 mm 0.26 in6.6 mm
11:40 PM 43.8°F6.6°C 35.0°F1.7°C 71% 2.3 mph S3.7 kmh S 4.6 mph7.4 kmh 29.83 in1010.2 mb - 0.01 in0.3 mm 0.27 in6.9 mm
11:50 PM 43.7°F6.5°C 34.9°F1.6°C 71% 2.3 mph SW3.7 kmh SW 3.5 mph5.6 kmh 29.83 in1010.2 mb - 0.01 in0.3 mm 0.27 in6.9 mm